sensor_id;sensor_type;location;lat;lon;timestamp;P1;durP1;ratioP1;P2;durP2;ratioP2
20271;SDS011;10295;49.812;9.866;2023-07-09T00:01:14;11.45;;;5.03;;
20271;SDS011;10295;49.812;9.866;2023-07-09T00:03:44;14.32;;;5.40;;
20271;SDS011;10295;49.812;9.866;2023-07-09T00:06:14;12.00;;;4.90;;
20271;SDS011;10295;49.812;9.866;2023-07-09T00:08:44;14.85;;;5.68;;
20271;SDS011;10295;49.812;9.866;2023-07-09T00:11:14;11.40;;;4.93;;
20271;SDS011;10295;49.812;9.866;2023-07-09T00:13:41;14.27;;;5.40;;
20271;SDS011;10295;49.812;9.866;2023-07-09T00:16:16;12.70;;;5.35;;
20271;SDS011;10295;49.812;9.866;2023-07-09T00:18:46;12.23;;;4.90;;
20271;SDS011;10295;49.812;9.866;2023-07-09T00:21:16;11.20;;;5.13;;
20271;SDS011;10295;49.812;9.866;2023-07-09T00:23:43;13.55;;;5.45;;
20271;SDS011;10295;49.812;9.866;2023-07-09T00:26:11;12.75;;;5.63;;
20271;SDS011;10295;49.812;9.866;2023-07-09T00:28:42;11.05;;;5.13;;
20271;SDS011;10295;49.812;9.866;2023-07-09T00:31:11;13.05;;;5.45;;
20271;SDS011;10295;49.812;9.866;2023-07-09T00:33:42;11.95;;;5.55;;
20271;SDS011;10295;49.812;9.866;2023-07-09T00:36:13;14.40;;;5.45;;
20271;SDS011;10295;49.812;9.866;2023-07-09T00:38:41;17.08;;;5.60;;
20271;SDS011;10295;49.812;9.866;2023-07-09T00:41:16;15.98;;;6.18;;
20271;SDS011;10295;49.812;9.866;2023-07-09T00:43:45;13.57;;;5.63;;
20271;SDS011;10295;49.812;9.866;2023-07-09T00:46:16;12.50;;;5.77;;
20271;SDS011;10295;49.812;9.866;2023-07-09T00:49:04;18.77;;;6.03;;
20271;SDS011;10295;49.812;9.866;2023-07-09T00:51:32;12.23;;;5.28;;
20271;SDS011;10295;49.812;9.866;2023-07-09T00:54:01;17.13;;;5.75;;
20271;SDS011;10295;49.812;9.866;2023-07-09T00:56:34;14.17;;;5.47;;
20271;SDS011;10295;49.812;9.866;2023-07-09T00:59:05;13.70;;;5.28;;
20271;SDS011;10295;49.812;9.866;2023-07-09T01:01:33;16.38;;;5.47;;
20271;SDS011;10295;49.812;9.866;2023-07-09T01:04:02;14.80;;;5.13;;
20271;SDS011;10295;49.812;9.866;2023-07-09T01:06:43;11.88;;;5.40;;
20271;SDS011;10295;49.812;9.866;2023-07-09T01:09:11;14.98;;;4.82;;
20271;SDS011;10295;49.812;9.866;2023-07-09T01:11:38;11.73;;;5.10;;
20271;SDS011;10295;49.812;9.866;2023-07-09T01:14:07;16.60;;;5.83;;
20271;SDS011;10295;49.812;9.866;2023-07-09T01:16:46;13.90;;;5.28;;
20271;SDS011;10295;49.812;9.866;2023-07-09T01:19:14;13.35;;;5.38;;
20271;SDS011;10295;49.812;9.866;2023-07-09T01:21:42;14.65;;;6.00;;
20271;SDS011;10295;49.812;9.866;2023-07-09T01:24:11;15.33;;;5.80;;
20271;SDS011;10295;49.812;9.866;2023-07-09T01:26:40;15.48;;;5.68;;
20271;SDS011;10295;49.812;9.866;2023-07-09T01:29:07;13.57;;;5.35;;
20271;SDS011;10295;49.812;9.866;2023-07-09T01:31:34;13.83;;;5.73;;
20271;SDS011;10295;49.812;9.866;2023-07-09T01:34:02;14.73;;;5.97;;
20271;SDS011;10295;49.812;9.866;2023-07-09T01:36:30;17.20;;;6.00;;
20271;SDS011;10295;49.812;9.866;2023-07-09T01:38:57;13.50;;;5.70;;
20271;SDS011;10295;49.812;9.866;2023-07-09T01:41:24;12.20;;;5.40;;
20271;SDS011;10295;49.812;9.866;2023-07-09T01:43:52;11.75;;;5.50;;
20271;SDS011;10295;49.812;9.866;2023-07-09T01:46:19;14.00;;;5.57;;
20271;SDS011;10295;49.812;9.866;2023-07-09T01:48:47;12.37;;;5.53;;
20271;SDS011;10295;49.812;9.866;2023-07-09T01:51:16;13.20;;;5.70;;
20271;SDS011;10295;49.812;9.866;2023-07-09T01:53:43;13.13;;;5.87;;
20271;SDS011;10295;49.812;9.866;2023-07-09T01:56:11;15.23;;;6.23;;
20271;SDS011;10295;49.812;9.866;2023-07-09T01:58:38;15.70;;;6.00;;
20271;SDS011;10295;49.812;9.866;2023-07-09T02:01:09;16.53;;;5.63;;
20271;SDS011;10295;49.812;9.866;2023-07-09T02:03:36;16.30;;;5.73;;
20271;SDS011;10295;49.812;9.866;2023-07-09T02:06:04;14.50;;;6.27;;
20271;SDS011;10295;49.812;9.866;2023-07-09T02:08:36;14.77;;;6.07;;
20271;SDS011;10295;49.812;9.866;2023-07-09T02:11:04;17.13;;;6.20;;
20271;SDS011;10295;49.812;9.866;2023-07-09T02:13:31;15.20;;;6.13;;
20271;SDS011;10295;49.812;9.866;2023-07-09T02:15:58;13.47;;;6.23;;
20271;SDS011;10295;49.812;9.866;2023-07-09T02:18:27;14.70;;;5.93;;
20271;SDS011;10295;49.812;9.866;2023-07-09T02:20:54;14.80;;;6.53;;
20271;SDS011;10295;49.812;9.866;2023-07-09T02:23:25;15.87;;;6.07;;
20271;SDS011;10295;49.812;9.866;2023-07-09T02:25:52;13.47;;;5.73;;
20271;SDS011;10295;49.812;9.866;2023-07-09T02:28:20;14.00;;;5.40;;
20271;SDS011;10295;49.812;9.866;2023-07-09T02:30:47;13.47;;;5.97;;
20271;SDS011;10295;49.812;9.866;2023-07-09T02:33:14;16.37;;;6.10;;
20271;SDS011;10295;49.812;9.866;2023-07-09T02:35:41;19.73;;;6.30;;
20271;SDS011;10295;49.812;9.866;2023-07-09T02:38:08;14.40;;;6.10;;
20271;SDS011;10295;49.812;9.866;2023-07-09T02:40:36;13.47;;;5.87;;
20271;SDS011;10295;49.812;9.866;2023-07-09T02:43:03;13.90;;;6.17;;
20271;SDS011;10295;49.812;9.866;2023-07-09T02:45:30;13.03;;;5.77;;
20271;SDS011;10295;49.812;9.866;2023-07-09T02:47:57;10.93;;;5.60;;
20271;SDS011;10295;49.812;9.866;2023-07-09T02:50:25;16.27;;;5.90;;
20271;SDS011;10295;49.812;9.866;2023-07-09T02:52:52;11.60;;;5.80;;
20271;SDS011;10295;49.812;9.866;2023-07-09T02:55:19;15.27;;;6.20;;
20271;SDS011;10295;49.812;9.866;2023-07-09T02:57:46;13.70;;;5.97;;
20271;SDS011;10295;49.812;9.866;2023-07-09T03:00:13;13.67;;;6.30;;
20271;SDS011;10295;49.812;9.866;2023-07-09T03:02:41;14.60;;;6.27;;
20271;SDS011;10295;49.812;9.866;2023-07-09T03:05:08;14.67;;;6.00;;
20271;SDS011;10295;49.812;9.866;2023-07-09T03:07:36;14.23;;;6.10;;
20271;SDS011;10295;49.812;9.866;2023-07-09T03:10:04;18.10;;;6.40;;
20271;SDS011;10295;49.812;9.866;2023-07-09T03:12:31;16.37;;;6.30;;
20271;SDS011;10295;49.812;9.866;2023-07-09T03:14:58;15.27;;;6.27;;
20271;SDS011;10295;49.812;9.866;2023-07-09T03:17:26;13.30;;;6.47;;
20271;SDS011;10295;49.812;9.866;2023-07-09T03:19:53;14.50;;;6.57;;
20271;SDS011;10295;49.812;9.866;2023-07-09T03:22:21;13.50;;;6.27;;
20271;SDS011;10295;49.812;9.866;2023-07-09T03:24:48;15.53;;;6.70;;
20271;SDS011;10295;49.812;9.866;2023-07-09T03:27:15;13.53;;;6.10;;
20271;SDS011;10295;49.812;9.866;2023-07-09T03:29:42;15.07;;;6.80;;
20271;SDS011;10295;49.812;9.866;2023-07-09T03:32:09;13.17;;;6.40;;
20271;SDS011;10295;49.812;9.866;2023-07-09T03:34:37;15.13;;;6.27;;
20271;SDS011;10295;49.812;9.866;2023-07-09T03:37:04;13.63;;;5.97;;
20271;SDS011;10295;49.812;9.866;2023-07-09T03:39:31;16.20;;;6.03;;
20271;SDS011;10295;49.812;9.866;2023-07-09T03:41:59;14.83;;;5.83;;
20271;SDS011;10295;49.812;9.866;2023-07-09T03:44:26;17.13;;;5.97;;
20271;SDS011;10295;49.812;9.866;2023-07-09T03:46:53;17.27;;;5.93;;
20271;SDS011;10295;49.812;9.866;2023-07-09T03:49:20;14.53;;;5.47;;
20271;SDS011;10295;49.812;9.866;2023-07-09T03:51:47;13.40;;;5.83;;
20271;SDS011;10295;49.812;9.866;2023-07-09T03:54:14;14.37;;;5.83;;
20271;SDS011;10295;49.812;9.866;2023-07-09T03:56:42;17.13;;;6.07;;
20271;SDS011;10295;49.812;9.866;2023-07-09T03:59:09;13.03;;;5.83;;
20271;SDS011;10295;49.812;9.866;2023-07-09T04:01:36;15.60;;;5.90;;
20271;SDS011;10295;49.812;9.866;2023-07-09T04:04:04;15.13;;;6.20;;
20271;SDS011;10295;49.812;9.866;2023-07-09T04:06:31;11.70;;;5.70;;
20271;SDS011;10295;49.812;9.866;2023-07-09T04:08:58;17.67;;;6.43;;
20271;SDS011;10295;49.812;9.866;2023-07-09T04:11:25;18.20;;;6.57;;
20271;SDS011;10295;49.812;9.866;2023-07-09T04:13:52;14.63;;;5.73;;
20271;SDS011;10295;49.812;9.866;2023-07-09T04:16:19;16.87;;;6.20;;
20271;SDS011;10295;49.812;9.866;2023-07-09T04:18:48;14.57;;;6.33;;
20271;SDS011;10295;49.812;9.866;2023-07-09T04:21:15;16.85;;;6.32;;
20271;SDS011;10295;49.812;9.866;2023-07-09T04:23:42;16.17;;;5.93;;
20271;SDS011;10295;49.812;9.866;2023-07-09T04:26:13;13.52;;;5.72;;
20271;SDS011;10295;49.812;9.866;2023-07-09T04:28:40;13.63;;;5.70;;
20271;SDS011;10295;49.812;9.866;2023-07-09T04:31:07;14.18;;;5.65;;
20271;SDS011;10295;49.812;9.866;2023-07-09T04:33:36;13.73;;;5.63;;
20271;SDS011;10295;49.812;9.866;2023-07-09T04:36:03;13.80;;;5.60;;
20271;SDS011;10295;49.812;9.866;2023-07-09T04:38:33;11.90;;;5.70;;
20271;SDS011;10295;49.812;9.866;2023-07-09T04:41:00;15.20;;;6.45;;
20271;SDS011;10295;49.812;9.866;2023-07-09T04:43:27;11.82;;;5.68;;
20271;SDS011;10295;49.812;9.866;2023-07-09T04:45:54;15.10;;;5.63;;
20271;SDS011;10295;49.812;9.866;2023-07-09T04:48:21;13.48;;;5.90;;
20271;SDS011;10295;49.812;9.866;2023-07-09T04:50:49;14.88;;;6.15;;
20271;SDS011;10295;49.812;9.866;2023-07-09T04:53:16;16.30;;;6.25;;
20271;SDS011;10295;49.812;9.866;2023-07-09T04:55:45;13.60;;;6.18;;
20271;SDS011;10295;49.812;9.866;2023-07-09T04:58:12;15.10;;;6.22;;
20271;SDS011;10295;49.812;9.866;2023-07-09T05:00:39;12.60;;;5.82;;
20271;SDS011;10295;49.812;9.866;2023-07-09T05:03:06;12.35;;;5.80;;
20271;SDS011;10295;49.812;9.866;2023-07-09T05:05:33;15.07;;;6.20;;
20271;SDS011;10295;49.812;9.866;2023-07-09T05:08:01;15.85;;;5.80;;
20271;SDS011;10295;49.812;9.866;2023-07-09T05:10:28;13.82;;;6.13;;
20271;SDS011;10295;49.812;9.866;2023-07-09T05:12:55;12.85;;;5.78;;
20271;SDS011;10295;49.812;9.866;2023-07-09T05:15:23;13.25;;;5.65;;
20271;SDS011;10295;49.812;9.866;2023-07-09T05:17:50;13.48;;;5.90;;
20271;SDS011;10295;49.812;9.866;2023-07-09T05:20:18;15.45;;;6.32;;
20271;SDS011;10295;49.812;9.866;2023-07-09T05:22:47;12.50;;;5.78;;
20271;SDS011;10295;49.812;9.866;2023-07-09T05:25:14;16.23;;;6.28;;
20271;SDS011;10295;49.812;9.866;2023-07-09T05:27:42;13.00;;;6.10;;
20271;SDS011;10295;49.812;9.866;2023-07-09T05:30:09;11.95;;;6.05;;
20271;SDS011;10295;49.812;9.866;2023-07-09T05:32:37;12.75;;;6.13;;
20271;SDS011;10295;49.812;9.866;2023-07-09T05:35:04;13.95;;;6.10;;
20271;SDS011;10295;49.812;9.866;2023-07-09T05:37:32;14.68;;;5.93;;
20271;SDS011;10295;49.812;9.866;2023-07-09T05:39:59;14.25;;;6.22;;
20271;SDS011;10295;49.812;9.866;2023-07-09T05:42:26;14.63;;;6.38;;
20271;SDS011;10295;49.812;9.866;2023-07-09T05:44:53;16.85;;;6.80;;
20271;SDS011;10295;49.812;9.866;2023-07-09T05:47:20;14.93;;;6.47;;
20271;SDS011;10295;49.812;9.866;2023-07-09T05:49:48;12.25;;;6.25;;
20271;SDS011;10295;49.812;9.866;2023-07-09T05:52:17;15.23;;;6.63;;
20271;SDS011;10295;49.812;9.866;2023-07-09T05:54:44;15.60;;;6.43;;
20271;SDS011;10295;49.812;9.866;2023-07-09T05:57:11;13.90;;;6.10;;
20271;SDS011;10295;49.812;9.866;2023-07-09T05:59:39;16.13;;;6.03;;
20271;SDS011;10295;49.812;9.866;2023-07-09T06:02:16;12.18;;;6.18;;
20271;SDS011;10295;49.812;9.866;2023-07-09T06:04:43;12.82;;;6.20;;
20271;SDS011;10295;49.812;9.866;2023-07-09T06:07:12;15.00;;;5.93;;
20271;SDS011;10295;49.812;9.866;2023-07-09T06:09:40;14.38;;;6.57;;
20271;SDS011;10295;49.812;9.866;2023-07-09T06:12:07;12.80;;;6.10;;
20271;SDS011;10295;49.812;9.866;2023-07-09T06:14:35;14.27;;;6.57;;
20271;SDS011;10295;49.812;9.866;2023-07-09T06:17:03;13.80;;;6.50;;
20271;SDS011;10295;49.812;9.866;2023-07-09T06:19:30;14.23;;;6.45;;
20271;SDS011;10295;49.812;9.866;2023-07-09T06:21:57;12.27;;;6.25;;
20271;SDS011;10295;49.812;9.866;2023-07-09T06:24:24;12.85;;;6.65;;
20271;SDS011;10295;49.812;9.866;2023-07-09T06:26:51;14.48;;;6.50;;
20271;SDS011;10295;49.812;9.866;2023-07-09T06:29:19;12.30;;;6.57;;
20271;SDS011;10295;49.812;9.866;2023-07-09T06:31:46;12.90;;;6.53;;
20271;SDS011;10295;49.812;9.866;2023-07-09T06:34:13;12.02;;;6.40;;
20271;SDS011;10295;49.812;9.866;2023-07-09T06:36:40;13.13;;;6.25;;
20271;SDS011;10295;49.812;9.866;2023-07-09T06:39:09;14.15;;;6.45;;
20271;SDS011;10295;49.812;9.866;2023-07-09T06:41:37;13.02;;;6.20;;
20271;SDS011;10295;49.812;9.866;2023-07-09T06:44:05;11.57;;;6.13;;
20271;SDS011;10295;49.812;9.866;2023-07-09T06:46:33;12.45;;;6.68;;
20271;SDS011;10295;49.812;9.866;2023-07-09T06:49:00;12.70;;;6.45;;
20271;SDS011;10295;49.812;9.866;2023-07-09T06:51:28;13.30;;;6.55;;
20271;SDS011;10295;49.812;9.866;2023-07-09T06:53:55;12.90;;;5.97;;
20271;SDS011;10295;49.812;9.866;2023-07-09T06:56:22;13.88;;;6.95;;
20271;SDS011;10295;49.812;9.866;2023-07-09T06:58:49;13.73;;;6.35;;
20271;SDS011;10295;49.812;9.866;2023-07-09T07:01:16;10.70;;;5.85;;
20271;SDS011;10295;49.812;9.866;2023-07-09T07:03:46;14.10;;;6.53;;
20271;SDS011;10295;49.812;9.866;2023-07-09T07:06:14;10.52;;;5.88;;
20271;SDS011;10295;49.812;9.866;2023-07-09T07:08:42;14.27;;;5.88;;
20271;SDS011;10295;49.812;9.866;2023-07-09T07:11:09;11.20;;;6.25;;
20271;SDS011;10295;49.812;9.866;2023-07-09T07:13:38;12.80;;;5.80;;
20271;SDS011;10295;49.812;9.866;2023-07-09T07:16:06;13.73;;;6.32;;
20271;SDS011;10295;49.812;9.866;2023-07-09T07:18:34;13.35;;;6.38;;
20271;SDS011;10295;49.812;9.866;2023-07-09T07:21:02;10.90;;;6.25;;
20271;SDS011;10295;49.812;9.866;2023-07-09T07:23:29;11.02;;;5.88;;
20271;SDS011;10295;49.812;9.866;2023-07-09T07:25:56;13.13;;;6.10;;
20271;SDS011;10295;49.812;9.866;2023-07-09T07:28:24;12.60;;;6.57;;
20271;SDS011;10295;49.812;9.866;2023-07-09T07:30:57;12.35;;;5.80;;
20271;SDS011;10295;49.812;9.866;2023-07-09T07:33:24;13.20;;;5.70;;
20271;SDS011;10295;49.812;9.866;2023-07-09T07:35:53;9.95;;;5.35;;
20271;SDS011;10295;49.812;9.866;2023-07-09T07:38:40;10.13;;;5.63;;
20271;SDS011;10295;49.812;9.866;2023-07-09T07:41:07;13.75;;;6.05;;
20271;SDS011;10295;49.812;9.866;2023-07-09T07:43:34;13.27;;;5.93;;
20271;SDS011;10295;49.812;9.866;2023-07-09T07:46:02;12.45;;;6.20;;
20271;SDS011;10295;49.812;9.866;2023-07-09T07:48:30;12.68;;;5.93;;
20271;SDS011;10295;49.812;9.866;2023-07-09T07:51:01;14.95;;;6.25;;
20271;SDS011;10295;49.812;9.866;2023-07-09T07:53:29;12.35;;;5.75;;
20271;SDS011;10295;49.812;9.866;2023-07-09T07:55:57;12.98;;;6.20;;
20271;SDS011;10295;49.812;9.866;2023-07-09T07:58:24;13.52;;;5.97;;
20271;SDS011;10295;49.812;9.866;2023-07-09T08:00:55;13.43;;;5.57;;
20271;SDS011;10295;49.812;9.866;2023-07-09T08:03:23;11.93;;;6.32;;
20271;SDS011;10295;49.812;9.866;2023-07-09T08:05:51;11.07;;;5.57;;
20271;SDS011;10295;49.812;9.866;2023-07-09T08:08:18;14.02;;;5.90;;
20271;SDS011;10295;49.812;9.866;2023-07-09T08:10:46;11.20;;;5.45;;
20271;SDS011;10295;49.812;9.866;2023-07-09T08:13:13;14.48;;;5.93;;
20271;SDS011;10295;49.812;9.866;2023-07-09T08:15:40;10.63;;;5.13;;
20271;SDS011;10295;49.812;9.866;2023-07-09T08:18:08;13.73;;;5.63;;
20271;SDS011;10295;49.812;9.866;2023-07-09T08:20:36;10.90;;;5.60;;
20271;SDS011;10295;49.812;9.866;2023-07-09T08:23:03;14.60;;;5.85;;
20271;SDS011;10295;49.812;9.866;2023-07-09T08:25:30;10.50;;;5.80;;
20271;SDS011;10295;49.812;9.866;2023-07-09T08:27:57;13.00;;;5.65;;
20271;SDS011;10295;49.812;9.866;2023-07-09T08:30:25;12.00;;;5.95;;
20271;SDS011;10295;49.812;9.866;2023-07-09T08:32:52;10.73;;;5.57;;
20271;SDS011;10295;49.812;9.866;2023-07-09T08:35:19;10.40;;;5.45;;
20271;SDS011;10295;49.812;9.866;2023-07-09T08:37:49;12.23;;;5.57;;
20271;SDS011;10295;49.812;9.866;2023-07-09T08:40:16;14.60;;;5.20;;
20271;SDS011;10295;49.812;9.866;2023-07-09T08:42:44;9.85;;;4.97;;
20271;SDS011;10295;49.812;9.866;2023-07-09T08:45:47;11.00;;;5.38;;
20271;SDS011;10295;49.812;9.866;2023-07-09T08:48:26;10.70;;;4.82;;
20271;SDS011;10295;49.812;9.866;2023-07-09T08:50:57;11.43;;;5.70;;
20271;SDS011;10295;49.812;9.866;2023-07-09T08:53:36;9.73;;;4.97;;
20271;SDS011;10295;49.812;9.866;2023-07-09T08:56:07;10.90;;;5.30;;
20271;SDS011;10295;49.812;9.866;2023-07-09T08:58:34;9.32;;;5.35;;
20271;SDS011;10295;49.812;9.866;2023-07-09T09:01:04;12.05;;;5.25;;
20271;SDS011;10295;49.812;9.866;2023-07-09T09:03:44;9.52;;;5.20;;
20271;SDS011;10295;49.812;9.866;2023-07-09T09:06:14;10.52;;;5.05;;
20271;SDS011;10295;49.812;9.866;2023-07-09T09:11:40;10.75;;;5.07;;
20271;SDS011;10295;49.812;9.866;2023-07-09T09:14:23;9.60;;;4.97;;
20271;SDS011;10295;49.812;9.866;2023-07-09T09:16:53;11.55;;;5.28;;
20271;SDS011;10295;49.812;9.866;2023-07-09T09:20:06;10.70;;;5.20;;
20271;SDS011;10295;49.812;9.866;2023-07-09T09:22:09;11.45;;;4.97;;
20271;SDS011;10295;49.812;9.866;2023-07-09T09:24:51;10.18;;;5.32;;
20271;SDS011;10295;49.812;9.866;2023-07-09T09:27:20;10.75;;;4.60;;
20271;SDS011;10295;49.812;9.866;2023-07-09T09:29:47;9.38;;;4.95;;
20271;SDS011;10295;49.812;9.866;2023-07-09T09:32:28;13.20;;;5.15;;
20271;SDS011;10295;49.812;9.866;2023-07-09T09:34:55;10.85;;;4.65;;
20271;SDS011;10295;49.812;9.866;2023-07-09T09:37:24;11.38;;;5.25;;
20271;SDS011;10295;49.812;9.866;2023-07-09T09:39:52;11.10;;;4.80;;
20271;SDS011;10295;49.812;9.866;2023-07-09T09:42:38;9.98;;;5.00;;
20271;SDS011;10295;49.812;9.866;2023-07-09T09:45:08;9.23;;;4.55;;
20271;SDS011;10295;49.812;9.866;2023-07-09T09:47:38;8.68;;;4.43;;
20271;SDS011;10295;49.812;9.866;2023-07-09T09:50:05;11.77;;;4.68;;
20271;SDS011;10295;49.812;9.866;2023-07-09T09:52:32;13.10;;;4.50;;
20271;SDS011;10295;49.812;9.866;2023-07-09T09:55:09;11.00;;;4.50;;
20271;SDS011;10295;49.812;9.866;2023-07-09T09:57:37;9.88;;;4.60;;
20271;SDS011;10295;49.812;9.866;2023-07-09T10:00:05;9.07;;;4.22;;
20271;SDS011;10295;49.812;9.866;2023-07-09T10:02:38;9.68;;;4.43;;
20271;SDS011;10295;49.812;9.866;2023-07-09T10:05:12;9.40;;;4.28;;
20271;SDS011;10295;49.812;9.866;2023-07-09T10:07:46;8.70;;;4.25;;
20271;SDS011;10295;49.812;9.866;2023-07-09T10:10:15;9.60;;;4.20;;
20271;SDS011;10295;49.812;9.866;2023-07-09T10:12:51;12.15;;;4.28;;
20271;SDS011;10295;49.812;9.866;2023-07-09T10:20:35;10.27;;;4.57;;
20271;SDS011;10295;49.812;9.866;2023-07-09T10:26:03;10.52;;;4.47;;
20271;SDS011;10295;49.812;9.866;2023-07-09T10:34:11;11.45;;;4.40;;
20271;SDS011;10295;49.812;9.866;2023-07-09T10:39:24;9.48;;;4.13;;
20271;SDS011;10295;49.812;9.866;2023-07-09T10:41:53;11.38;;;4.13;;
20271;SDS011;10295;49.812;9.866;2023-07-09T10:44:29;8.93;;;4.30;;
20271;SDS011;10295;49.812;9.866;2023-07-09T10:46:59;11.85;;;4.18;;
20271;SDS011;10295;49.812;9.866;2023-07-09T10:49:30;9.60;;;4.32;;
20271;SDS011;10295;49.812;9.866;2023-07-09T10:52:06;8.95;;;4.03;;
20271;SDS011;10295;49.812;9.866;2023-07-09T10:54:55;9.32;;;3.80;;
20271;SDS011;10295;49.812;9.866;2023-07-09T10:59:56;18.02;;;4.38;;
20271;SDS011;10295;49.812;9.866;2023-07-09T11:02:25;8.30;;;4.15;;
20271;SDS011;10295;49.812;9.866;2023-07-09T11:04:54;9.32;;;3.85;;
20271;SDS011;10295;49.812;9.866;2023-07-09T11:07:27;10.45;;;4.10;;
20271;SDS011;10295;49.812;9.866;2023-07-09T11:09:55;8.15;;;3.80;;
20271;SDS011;10295;49.812;9.866;2023-07-09T11:12:46;9.52;;;3.80;;
20271;SDS011;10295;49.812;9.866;2023-07-09T11:15:28;9.85;;;4.07;;
20271;SDS011;10295;49.812;9.866;2023-07-09T11:17:56;11.80;;;4.28;;
20271;SDS011;10295;49.812;9.866;2023-07-09T11:20:32;9.50;;;4.50;;
20271;SDS011;10295;49.812;9.866;2023-07-09T11:23:01;8.05;;;4.28;;
20271;SDS011;10295;49.812;9.866;2023-07-09T11:25:42;8.88;;;3.95;;
20271;SDS011;10295;49.812;9.866;2023-07-09T11:28:10;10.90;;;4.00;;
20271;SDS011;10295;49.812;9.866;2023-07-09T11:30:53;10.73;;;3.90;;
20271;SDS011;10295;49.812;9.866;2023-07-09T11:33:29;11.32;;;4.25;;
20271;SDS011;10295;49.812;9.866;2023-07-09T11:36:11;10.63;;;3.67;;
20271;SDS011;10295;49.812;9.866;2023-07-09T11:38:43;8.48;;;3.90;;
20271;SDS011;10295;49.812;9.866;2023-07-09T11:41:27;9.90;;;4.13;;
20271;SDS011;10295;49.812;9.866;2023-07-09T11:44:03;10.23;;;4.20;;
20271;SDS011;10295;49.812;9.866;2023-07-09T11:46:30;9.45;;;3.83;;
20271;SDS011;10295;49.812;9.866;2023-07-09T11:48:58;10.00;;;3.95;;
20271;SDS011;10295;49.812;9.866;2023-07-09T11:51:38;8.75;;;3.97;;
20271;SDS011;10295;49.812;9.866;2023-07-09T11:54:07;9.07;;;3.85;;
20271;SDS011;10295;49.812;9.866;2023-07-09T11:56:37;8.55;;;3.90;;
20271;SDS011;10295;49.812;9.866;2023-07-09T11:59:04;8.35;;;3.58;;
20271;SDS011;10295;49.812;9.866;2023-07-09T12:01:34;8.48;;;3.55;;
20271;SDS011;10295;49.812;9.866;2023-07-09T12:04:03;9.68;;;4.10;;
20271;SDS011;10295;49.812;9.866;2023-07-09T12:06:32;9.20;;;3.45;;
20271;SDS011;10295;49.812;9.866;2023-07-09T12:08:59;9.98;;;3.97;;
20271;SDS011;10295;49.812;9.866;2023-07-09T12:14:03;12.25;;;3.95;;
20271;SDS011;10295;49.812;9.866;2023-07-09T12:16:36;11.02;;;4.00;;
20271;SDS011;10295;49.812;9.866;2023-07-09T12:19:05;12.30;;;3.80;;
20271;SDS011;10295;49.812;9.866;2023-07-09T12:21:34;10.23;;;3.80;;
20271;SDS011;10295;49.812;9.866;2023-07-09T12:24:03;8.25;;;3.60;;
20271;SDS011;10295;49.812;9.866;2023-07-09T12:26:41;9.07;;;3.85;;
20271;SDS011;10295;49.812;9.866;2023-07-09T12:29:09;10.80;;;4.07;;
20271;SDS011;10295;49.812;9.866;2023-07-09T12:31:36;11.48;;;4.05;;
20271;SDS011;10295;49.812;9.866;2023-07-09T12:34:03;10.13;;;4.00;;
20271;SDS011;10295;49.812;9.866;2023-07-09T12:36:30;10.18;;;3.90;;
20271;SDS011;10295;49.812;9.866;2023-07-09T12:39:01;11.38;;;3.65;;
20271;SDS011;10295;49.812;9.866;2023-07-09T12:41:32;9.10;;;3.60;;
20271;SDS011;10295;49.812;9.866;2023-07-09T12:44:02;8.68;;;4.00;;
20271;SDS011;10295;49.812;9.866;2023-07-09T12:46:29;10.70;;;3.90;;
20271;SDS011;10295;49.812;9.866;2023-07-09T12:48:58;10.80;;;3.95;;
20271;SDS011;10295;49.812;9.866;2023-07-09T12:51:28;9.00;;;3.58;;
20271;SDS011;10295;49.812;9.866;2023-07-09T12:54:00;9.05;;;3.72;;
20271;SDS011;10295;49.812;9.866;2023-07-09T12:56:27;9.60;;;3.80;;
20271;SDS011;10295;49.812;9.866;2023-07-09T12:58:56;9.35;;;3.97;;
20271;SDS011;10295;49.812;9.866;2023-07-09T13:01:23;9.60;;;3.63;;
20271;SDS011;10295;49.812;9.866;2023-07-09T13:03:55;9.77;;;3.83;;
20271;SDS011;10295;49.812;9.866;2023-07-09T13:06:26;9.82;;;3.45;;
20271;SDS011;10295;49.812;9.866;2023-07-09T13:08:56;9.82;;;3.92;;
20271;SDS011;10295;49.812;9.866;2023-07-09T13:11:23;10.18;;;3.95;;
20271;SDS011;10295;49.812;9.866;2023-07-09T13:13:54;9.13;;;3.90;;
20271;SDS011;10295;49.812;9.866;2023-07-09T13:16:22;12.15;;;3.95;;
20271;SDS011;10295;49.812;9.866;2023-07-09T13:18:49;10.82;;;3.75;;
20271;SDS011;10295;49.812;9.866;2023-07-09T13:21:17;8.90;;;3.50;;
20271;SDS011;10295;49.812;9.866;2023-07-09T13:23:44;9.32;;;4.60;;
20271;SDS011;10295;49.812;9.866;2023-07-09T13:26:13;10.57;;;3.83;;
20271;SDS011;10295;49.812;9.866;2023-07-09T13:28:40;10.85;;;3.80;;
20271;SDS011;10295;49.812;9.866;2023-07-09T13:31:15;12.88;;;3.95;;
20271;SDS011;10295;49.812;9.866;2023-07-09T13:33:43;9.55;;;3.70;;
20271;SDS011;10295;49.812;9.866;2023-07-09T13:36:12;8.98;;;3.60;;
20271;SDS011;10295;49.812;9.866;2023-07-09T13:38:39;10.35;;;3.72;;
20271;SDS011;10295;49.812;9.866;2023-07-09T13:41:12;10.57;;;4.03;;
20271;SDS011;10295;49.812;9.866;2023-07-09T13:43:42;9.30;;;3.50;;
20271;SDS011;10295;49.812;9.866;2023-07-09T13:46:10;9.20;;;3.55;;
20271;SDS011;10295;49.812;9.866;2023-07-09T13:48:38;8.88;;;3.47;;
20271;SDS011;10295;49.812;9.866;2023-07-09T13:51:12;11.40;;;3.45;;
20271;SDS011;10295;49.812;9.866;2023-07-09T13:53:40;12.07;;;4.10;;
20271;SDS011;10295;49.812;9.866;2023-07-09T13:56:08;11.68;;;3.92;;
20271;SDS011;10295;49.812;9.866;2023-07-09T13:58:35;8.23;;;3.60;;
20271;SDS011;10295;49.812;9.866;2023-07-09T14:01:10;11.77;;;3.63;;
20271;SDS011;10295;49.812;9.866;2023-07-09T14:03:38;8.65;;;3.80;;
20271;SDS011;10295;49.812;9.866;2023-07-09T14:06:05;11.07;;;3.92;;
20271;SDS011;10295;49.812;9.866;2023-07-09T14:08:32;14.32;;;3.63;;
20271;SDS011;10295;49.812;9.866;2023-07-09T14:11:00;9.30;;;3.60;;
20271;SDS011;10295;49.812;9.866;2023-07-09T14:13:27;8.38;;;3.45;;
20271;SDS011;10295;49.812;9.866;2023-07-09T14:15:55;11.45;;;4.10;;
20271;SDS011;10295;49.812;9.866;2023-07-09T14:18:23;10.32;;;4.05;;
20271;SDS011;10295;49.812;9.866;2023-07-09T14:20:50;10.45;;;4.05;;
20271;SDS011;10295;49.812;9.866;2023-07-09T14:23:17;9.60;;;3.78;;
20271;SDS011;10295;49.812;9.866;2023-07-09T14:25:45;11.82;;;4.28;;
20271;SDS011;10295;49.812;9.866;2023-07-09T14:28:14;8.93;;;3.72;;
20271;SDS011;10295;49.812;9.866;2023-07-09T14:30:42;10.73;;;3.85;;
20271;SDS011;10295;49.812;9.866;2023-07-09T14:33:13;12.10;;;3.90;;
20271;SDS011;10295;49.812;9.866;2023-07-09T14:35:40;8.88;;;4.07;;
20271;SDS011;10295;49.812;9.866;2023-07-09T14:40:44;11.25;;;4.30;;
20271;SDS011;10295;49.812;9.866;2023-07-09T14:43:12;10.23;;;3.95;;
20271;SDS011;10295;49.812;9.866;2023-07-09T14:45:39;9.77;;;4.25;;
20271;SDS011;10295;49.812;9.866;2023-07-09T14:48:10;12.18;;;4.35;;
20271;SDS011;10295;49.812;9.866;2023-07-09T14:50:38;12.55;;;3.72;;
20271;SDS011;10295;49.812;9.866;2023-07-09T14:53:11;10.52;;;4.07;;
20271;SDS011;10295;49.812;9.866;2023-07-09T14:55:39;9.95;;;4.13;;
20271;SDS011;10295;49.812;9.866;2023-07-09T14:58:16;10.85;;;3.92;;
20271;SDS011;10295;49.812;9.866;2023-07-09T15:00:44;12.82;;;4.05;;
20271;SDS011;10295;49.812;9.866;2023-07-09T15:03:31;10.48;;;4.13;;
20271;SDS011;10295;49.812;9.866;2023-07-09T15:05:58;13.40;;;4.20;;
20271;SDS011;10295;49.812;9.866;2023-07-09T15:08:25;10.48;;;4.03;;
20271;SDS011;10295;49.812;9.866;2023-07-09T15:10:53;10.40;;;3.80;;
20271;SDS011;10295;49.812;9.866;2023-07-09T15:13:31;11.15;;;3.80;;
20271;SDS011;10295;49.812;9.866;2023-07-09T15:15:59;11.60;;;4.35;;
20271;SDS011;10295;49.812;9.866;2023-07-09T15:18:27;8.77;;;3.75;;